Time;durP1;ratioP1;P1;durP2;ratioP2;P2;SDS_P1;SDS_P2;PMS_P1;PMS_P2;Temp;Humidity;BMP_temperature;BMP_pressure;BME280_temperature;BME280_humidity;BME280_pressure;Samples;Min_cycle;Max_cycle;Signal;HPM_P1;HPM_P2
2023/06/24 00:00:45;;;;;;;4.80;4.38;;;22.30;57.70;;;;;;5057886;28;20225;-64
2023/06/24 00:03:12;;;;;;;4.90;4.50;;;22.30;57.70;;;;;;5057102;28;20209;-64
2023/06/24 00:05:38;;;;;;;4.70;4.40;;;22.30;57.70;;;;;;5055064;28;20175;-64
2023/06/24 00:08:07;;;;;;;4.82;4.35;;;22.30;57.80;;;;;;5054607;28;20211;-63
2023/06/24 00:10:33;;;;;;;5.15;4.65;;;22.30;57.90;;;;;;5055496;28;20262;-63
2023/06/24 00:13:01;;;;;;;4.97;4.40;;;22.30;58.00;;;;;;5055184;28;20263;-63
2023/06/24 00:15:27;;;;;;;4.93;4.50;;;22.30;58.00;;;;;;5054905;28;20178;-63
2023/06/24 00:17:52;;;;;;;4.93;4.43;;;22.30;58.10;;;;;;5055741;28;20175;-63
2023/06/24 00:20:20;;;;;;;5.07;4.68;;;22.20;58.20;;;;;;5055012;28;20186;-63
2023/06/24 00:22:48;;;;;;;5.07;4.68;;;22.20;58.20;;;;;;5054824;28;20198;-63
2023/06/24 00:25:14;;;;;;;4.57;4.20;;;22.20;58.40;;;;;;5055005;28;20237;-63
2023/06/24 00:27:41;;;;;;;4.75;4.25;;;22.20;58.60;;;;;;5054514;28;20289;-63
2023/06/24 00:30:08;;;;;;;5.55;5.03;;;22.20;58.60;;;;;;5054896;28;20183;-64
2023/06/24 00:32:33;;;;;;;5.22;4.72;;;22.20;58.60;;;;;;5055164;28;20163;-64
2023/06/24 00:34:59;;;;;;;5.45;4.90;;;22.20;58.60;;;;;;5052924;28;20179;-64
2023/06/24 00:37:25;;;;;;;6.65;5.03;;;22.20;58.60;;;;;;5055049;28;20179;-63
2023/06/24 00:39:51;;;;;;;4.97;4.50;;;22.20;58.70;;;;;;5054939;28;20209;-63
2023/06/24 00:42:17;;;;;;;7.03;5.53;;;22.20;58.60;;;;;;5054036;28;20179;-63
2023/06/24 00:44:42;;;;;;;4.95;4.55;;;22.20;59.40;;;;;;5054887;28;20183;-63
2023/06/24 00:47:08;;;;;;;5.43;4.63;;;22.20;58.70;;;;;;5054473;28;20267;-63
2023/06/24 00:49:34;;;;;;;5.03;4.53;;;22.20;58.80;;;;;;5053803;28;20214;-62
2023/06/24 00:52:00;;;;;;;5.70;4.88;;;22.20;58.80;;;;;;5054633;28;20182;-63
2023/06/24 00:54:30;;;;;;;5.30;4.80;;;22.20;59.00;;;;;;5054639;28;20183;-63
2023/06/24 00:56:57;;;;;;;4.50;4.10;;;22.10;59.00;;;;;;5053772;28;20175;-63
2023/06/24 00:59:22;;;;;;;4.78;4.38;;;22.10;59.10;;;;;;5054485;28;20646;-64
2023/06/24 01:01:49;;;;;;;4.90;4.50;;;22.10;59.10;;;;;;5054523;28;20178;-64
2023/06/24 01:04:16;;;;;;;5.72;4.70;;;22.10;59.30;;;;;;5053518;28;20175;-64
2023/06/24 01:06:44;;;;;;;5.45;4.93;;;22.10;59.30;;;;;;5053448;28;20197;-64
2023/06/24 01:09:10;;;;;;;5.82;5.07;;;22.10;59.50;;;;;;5052926;28;20290;-63
2023/06/24 01:11:35;;;;;;;5.80;5.22;;;22.10;59.50;;;;;;5053825;28;20267;-63
2023/06/24 01:14:01;;;;;;;5.00;4.50;;;22.10;59.60;;;;;;5053875;28;20232;-63
2023/06/24 01:16:56;;;;;;;5.70;5.13;;;22.10;59.70;;;;;;5054292;28;20175;-63
2023/06/24 01:19:45;;;;;;;5.38;4.88;;;22.10;59.80;;;;;;5053151;28;20270;-63
2023/06/24 01:22:29;;;;;;;5.38;4.80;;;22.10;60.00;;;;;;5054055;28;20182;-63
2023/06/24 01:25:03;;;;;;;5.93;4.93;;;22.10;60.00;;;;;;5052313;28;20179;-63
2023/06/24 01:27:52;;;;;;;5.18;4.78;;;22.10;60.00;;;;;;5053974;28;20263;-63
2023/06/24 01:30:23;;;;;;;5.57;5.07;;;22.10;60.00;;;;;;5053193;28;20186;-64
2023/06/24 01:32:52;;;;;;;5.07;4.65;;;22.10;60.00;;;;;;5052260;28;20215;-64
2023/06/24 01:35:20;;;;;;;5.70;4.90;;;22.10;60.10;;;;;;5052398;28;20183;-64
2023/06/24 01:37:47;;;;;;;6.35;4.60;;;22.10;60.00;;;;;;5053760;28;20254;-63
2023/06/24 01:40:31;;;;;;;4.82;4.43;;;22.10;60.10;;;;;;5051870;28;20179;-63
2023/06/24 01:42:57;;;;;;;4.97;4.57;;;22.10;60.10;;;;;;5035716;28;20665;-63
2023/06/24 01:45:26;;;;;;;5.95;4.93;;;22.10;60.00;;;;;;5035437;28;20172;-63
2023/06/24 01:47:59;;;;;;;6.63;4.95;;;22.10;60.00;;;;;;5053469;28;20214;-63
2023/06/24 01:50:25;;;;;;;5.53;5.00;;;22.00;60.00;;;;;;5052294;28;20225;-63
2023/06/24 01:52:50;;;;;;;4.85;4.35;;;22.00;60.00;;;;;;5035271;28;20179;-63
2023/06/24 01:55:18;;;;;;;5.40;4.70;;;22.00;60.10;;;;;;5052053;28;20522;-63
2023/06/24 01:57:44;;;;;;;6.15;4.88;;;22.00;60.00;;;;;;5035933;28;20191;-64
2023/06/24 02:00:10;;;;;;;5.38;4.90;;;22.00;60.00;;;;;;5034717;28;20170;-64
2023/06/24 02:02:36;;;;;;;4.95;4.43;;;22.00;60.00;;;;;;5052329;28;20225;-64
2023/06/24 02:05:03;;;;;;;5.47;4.60;;;22.00;60.00;;;;;;5052068;28;20258;-64
2023/06/24 02:07:29;;;;;;;5.60;4.57;;;22.00;59.80;;;;;;5051426;28;20183;-63
2023/06/24 02:09:55;;;;;;;5.70;4.88;;;22.00;60.60;;;;;;5052173;28;20179;-63
2023/06/24 02:12:21;;;;;;;6.80;4.55;;;22.00;59.80;;;;;;5052039;28;20225;-63
2023/06/24 02:14:46;;;;;;;4.97;4.57;;;21.90;59.70;;;;;;5051356;28;20179;-63
2023/06/24 02:17:12;;;;;;;4.80;4.40;;;21.90;59.80;;;;;;5035308;28;20257;-63
2023/06/24 02:19:37;;;;;;;6.65;4.57;;;21.90;59.70;;;;;;5052047;28;20167;-63
2023/06/24 02:22:04;;;;;;;7.55;5.53;;;21.90;59.80;;;;;;5034487;28;20250;-63
2023/06/24 02:24:30;;;;;;;5.05;4.30;;;21.90;59.80;;;;;;5053333;28;20700;-63
2023/06/24 02:26:58;;;;;;;5.53;5.00;;;21.90;59.80;;;;;;5052335;28;20175;-63
2023/06/24 02:29:26;;;;;;;4.75;4.18;;;21.90;59.70;;;;;;5052118;28;20257;-63
2023/06/24 02:31:55;;;;;;;4.38;3.95;;;21.90;59.70;;;;;;5053043;28;20179;-64
2023/06/24 02:34:22;;;;;;;5.00;4.40;;;21.80;59.60;;;;;;5052155;28;20176;-64
2023/06/24 02:36:48;;;;;;;6.13;4.43;;;21.90;59.70;;;;;;5053193;28;20175;-63
2023/06/24 02:39:13;;;;;;;4.75;4.35;;;21.80;60.40;;;;;;5051919;28;20310;-63
2023/06/24 02:41:39;;;;;;;6.00;5.03;;;21.80;59.70;;;;;;5052078;28;20277;-63
2023/06/24 02:44:04;;;;;;;4.63;4.22;;;21.80;59.60;;;;;;5052363;28;20229;-63
2023/06/24 02:46:30;;;;;;;5.65;4.57;;;21.80;59.60;;;;;;5052930;28;20163;-63
2023/06/24 02:48:56;;;;;;;4.78;4.28;;;21.80;59.60;;;;;;5051785;28;20215;-63
2023/06/24 02:51:22;;;;;;;4.88;4.47;;;21.70;59.40;;;;;;5052605;28;20669;-62
2023/06/24 02:53:48;;;;;;;7.20;4.40;;;21.80;59.40;;;;;;5051499;28;20179;-63
2023/06/24 02:56:13;;;;;;;5.57;4.55;;;21.80;59.30;;;;;;5034027;28;20222;-63
2023/06/24 02:58:39;;;;;;;6.45;4.53;;;21.80;59.40;;;;;;5052608;28;20186;-64
2023/06/24 03:01:06;;;;;;;4.82;3.92;;;21.70;59.30;;;;;;5034876;28;20178;-65
2023/06/24 03:03:32;;;;;;;4.75;4.43;;;21.80;59.40;;;;;;5051980;28;20268;-63
2023/06/24 03:05:57;;;;;;;4.70;4.30;;;21.70;59.30;;;;;;5052416;28;20214;-63
2023/06/24 03:08:24;;;;;;;4.53;4.13;;;21.70;59.30;;;;;;5034750;28;20207;-63
2023/06/24 03:10:59;;;;;;;5.13;4.55;;;21.70;59.30;;;;;;5050742;28;20179;-63
2023/06/24 03:13:24;;;;;;;5.53;4.53;;;21.70;59.20;;;;;;5052723;28;20197;-62
2023/06/24 03:15:50;;;;;;;6.50;4.72;;;21.70;59.10;;;;;;5052748;28;20614;-63
2023/06/24 03:18:16;;;;;;;5.03;4.63;;;21.70;58.90;;;;;;5051490;28;20175;-62
2023/06/24 03:20:42;;;;;;;8.15;4.80;;;21.70;58.80;;;;;;5052555;28;20547;-63
2023/06/24 03:23:08;;;;;;;4.78;4.20;;;21.60;58.80;;;;;;5052071;28;20633;-62
2023/06/24 03:25:34;;;;;;;4.90;4.45;;;21.60;58.70;;;;;;5051687;28;20218;-63
2023/06/24 03:28:07;;;;;;;5.22;4.82;;;21.60;58.60;;;;;;5051960;28;20566;-63
2023/06/24 03:30:33;;;;;;;5.50;5.00;;;21.60;58.60;;;;;;5051619;28;20637;-63
2023/06/24 03:32:58;;;;;;;5.15;4.55;;;21.60;59.30;;;;;;5052168;28;20274;-64
2023/06/24 03:35:24;;;;;;;5.35;4.85;;;21.60;58.70;;;;;;5052725;28;20182;-64
2023/06/24 03:37:49;;;;;;;5.78;5.28;;;21.60;58.80;;;;;;5051549;28;20704;-63
2023/06/24 03:40:15;;;;;;;5.57;5.07;;;21.60;58.80;;;;;;5054760;28;20182;-63
2023/06/24 03:42:40;;;;;;;5.90;4.97;;;21.60;58.90;;;;;;5056168;28;20167;-63
2023/06/24 03:45:06;;;;;;;5.93;5.13;;;21.60;59.00;;;;;;5055124;28;20171;-63
2023/06/24 03:47:32;;;;;;;6.57;5.15;;;21.60;59.00;;;;;;5056047;28;20179;-62
2023/06/24 03:49:57;;;;;;;5.65;5.15;;;21.60;59.10;;;;;;5055869;28;20665;-63
2023/06/24 03:52:23;;;;;;;5.35;4.80;;;21.50;59.10;;;;;;5055201;28;20638;-63
2023/06/24 03:54:48;;;;;;;5.72;5.05;;;21.60;59.20;;;;;;5055671;28;20638;-63
2023/06/24 03:57:14;;;;;;;6.38;4.93;;;21.50;59.10;;;;;;5055670;28;20505;-63
2023/06/24 03:59:39;;;;;;;5.70;5.20;;;21.50;59.20;;;;;;5055116;28;20258;-64
2023/06/24 04:02:08;;;;;;;6.30;4.85;;;21.50;60.00;;;;;;5055594;28;20252;-64
2023/06/24 04:04:37;;;;;;;6.35;5.05;;;21.50;59.40;;;;;;5055709;28;20182;-63
2023/06/24 04:07:05;;;;;;;5.82;5.32;;;21.50;59.40;;;;;;5054550;28;20236;-63
2023/06/24 04:09:33;;;;;;;5.82;5.32;;;21.50;59.40;;;;;;5055422;28;20215;-63
2023/06/24 04:11:58;;;;;;;6.45;5.85;;;21.50;59.40;;;;;;5055460;28;20246;-63
2023/06/24 04:14:24;;;;;;;5.88;5.20;;;21.50;59.40;;;;;;5055068;28;20626;-63
2023/06/24 04:16:50;;;;;;;5.93;5.28;;;21.50;59.40;;;;;;5055343;28;20546;-63
2023/06/24 04:19:16;;;;;;;6.47;5.88;;;21.50;59.40;;;;;;5055176;28;20273;-63
2023/06/24 04:21:41;;;;;;;6.53;5.93;;;21.50;59.50;;;;;;5054794;28;20175;-63
2023/06/24 04:24:07;;;;;;;6.47;5.80;;;21.50;59.60;;;;;;5055096;28;20175;-63
2023/06/24 04:26:33;;;;;;;7.05;6.18;;;21.50;59.60;;;;;;5055441;28;20168;-62
2023/06/24 04:28:58;;;;;;;7.00;5.35;;;21.50;59.70;;;;;;5054355;28;20610;-63
2023/06/24 04:31:24;;;;;;;7.35;6.03;;;21.50;59.70;;;;;;5055567;28;20167;-64
2023/06/24 04:33:49;;;;;;;6.10;5.60;;;21.50;59.70;;;;;;5054358;28;20185;-64
2023/06/24 04:36:16;;;;;;;6.05;5.55;;;21.50;59.70;;;;;;5054801;28;20662;-63
2023/06/24 04:38:41;;;;;;;6.97;6.25;;;21.50;59.80;;;;;;5054846;28;20222;-63
2023/06/24 04:41:08;;;;;;;7.28;6.57;;;21.50;59.80;;;;;;5053957;28;20286;-63
2023/06/24 04:43:35;;;;;;;5.95;5.45;;;21.50;59.80;;;;;;5055246;28;20259;-63
2023/06/24 04:46:01;;;;;;;6.38;5.78;;;21.50;60.00;;;;;;5054810;28;20186;-63
2023/06/24 04:48:27;;;;;;;5.65;5.15;;;21.50;61.00;;;;;;5053993;28;20696;-63
2023/06/24 04:50:54;;;;;;;7.60;5.93;;;21.60;60.40;;;;;;5054513;28;20266;-63
2023/06/24 04:53:20;;;;;;;6.57;5.90;;;21.60;60.70;;;;;;5054290;28;20771;-62
2023/06/24 04:55:46;;;;;;;7.68;6.38;;;21.60;60.70;;;;;;5054203;28;20195;-63
2023/06/24 04:58:11;;;;;;;6.28;5.68;;;21.60;60.90;;;;;;5054410;28;20167;-64
2023/06/24 05:00:37;;;;;;;6.28;5.78;;;21.60;61.10;;;;;;5054655;28;20203;-64
2023/06/24 05:03:02;;;;;;;5.85;5.32;;;21.60;61.10;;;;;;5053591;28;20562;-64
2023/06/24 05:05:28;;;;;;;5.90;5.40;;;21.60;61.70;;;;;;5054453;28;20187;-64
2023/06/24 05:07:53;;;;;;;7.30;6.40;;;21.60;61.60;;;;;;5054207;28;20210;-63
2023/06/24 05:10:19;;;;;;;6.47;5.85;;;21.60;61.90;;;;;;5053395;28;20179;-63
2023/06/24 05:12:44;;;;;;;6.20;5.28;;;21.60;62.10;;;;;;5054521;28;20171;-63
2023/06/24 05:15:10;;;;;;;7.30;6.20;;;21.70;62.40;;;;;;5054175;28;20721;-63
2023/06/24 05:17:36;;;;;;;7.32;6.68;;;21.70;62.50;;;;;;5053781;28;20522;-63
2023/06/24 05:20:02;;;;;;;7.28;5.75;;;21.70;62.70;;;;;;5053894;28;20171;-63
2023/06/24 05:22:28;;;;;;;7.28;6.30;;;21.70;62.80;;;;;;5054130;28;20191;-63
2023/06/24 05:24:53;;;;;;;6.90;6.20;;;21.70;62.90;;;;;;5053320;28;20176;-63
2023/06/24 05:27:19;;;;;;;6.95;5.95;;;21.70;63.10;;;;;;5053751;28;20179;-64
2023/06/24 05:29:45;;;;;;;6.43;5.93;;;21.70;63.30;;;;;;5054037;28;20242;-64
2023/06/24 05:32:10;;;;;;;7.95;7.25;;;21.70;63.20;;;;;;5052954;28;20265;-65
2023/06/24 05:34:36;;;;;;;6.88;6.28;;;21.70;63.30;;;;;;5054065;28;20262;-64
2023/06/24 05:37:01;;;;;;;7.60;6.80;;;21.70;63.30;;;;;;5053208;28;20172;-64
2023/06/24 05:39:27;;;;;;;7.18;6.35;;;21.80;63.10;;;;;;5053379;28;20231;-63
2023/06/24 05:41:52;;;;;;;9.07;8.00;;;21.80;63.10;;;;;;5053955;28;20171;-63
2023/06/24 05:44:18;;;;;;;9.48;8.50;;;21.80;63.10;;;;;;5052744;28;20179;-63
2023/06/24 05:46:45;;;;;;;10.90;8.95;;;21.80;63.00;;;;;;5053680;28;20214;-63
2023/06/24 05:49:10;;;;;;;8.13;7.53;;;21.80;63.00;;;;;;5053373;28;20214;-63
2023/06/24 05:51:36;;;;;;;7.95;7.28;;;21.80;62.80;;;;;;5052895;28;20171;-63
2023/06/24 05:54:01;;;;;;;8.00;7.30;;;21.80;63.00;;;;;;5053413;28;20286;-63
2023/06/24 05:56:27;;;;;;;9.18;8.35;;;21.80;62.80;;;;;;5053456;28;20175;-63
2023/06/24 05:58:52;;;;;;;8.48;7.72;;;21.80;62.90;;;;;;5052667;28;20220;-64
2023/06/24 06:01:18;;;;;;;8.77;7.80;;;21.90;62.80;;;;;;5052492;28;20210;-65
2023/06/24 06:03:44;;;;;;;9.27;7.93;;;21.90;62.80;;;;;;5053290;28;20179;-65
2023/06/24 06:06:09;;;;;;;8.93;8.05;;;21.90;62.60;;;;;;5052373;28;20639;-64
2023/06/24 06:08:35;;;;;;;9.02;8.13;;;21.90;62.60;;;;;;5053477;28;20214;-63
2023/06/24 06:11:03;;;;;;;8.68;7.88;;;21.90;62.40;;;;;;5052916;28;20221;-64
2023/06/24 06:13:29;;;;;;;9.02;8.18;;;21.90;62.50;;;;;;5052711;28;20501;-64
2023/06/24 06:15:55;;;;;;;7.93;7.22;;;21.90;62.30;;;;;;5053246;28;20296;-64
2023/06/24 06:18:21;;;;;;;8.60;7.75;;;21.90;62.10;;;;;;5053075;28;20185;-63
2023/06/24 06:20:47;;;;;;;8.95;7.13;;;22.00;62.30;;;;;;5052330;28;20167;-63
2023/06/24 06:23:12;;;;;;;9.18;7.50;;;22.00;62.10;;;;;;5052886;28;20175;-63
2023/06/24 06:25:38;;;;;;;6.82;6.22;;;22.00;62.00;;;;;;5053157;28;20691;-63
2023/06/24 06:28:04;;;;;;;7.57;6.88;;;22.00;61.90;;;;;;5051954;28;20195;-63
2023/06/24 06:30:29;;;;;;;7.80;7.00;;;22.00;61.70;;;;;;5052906;28;20182;-64
2023/06/24 06:32:55;;;;;;;7.45;6.70;;;22.00;62.40;;;;;;5052942;28;20582;-65
2023/06/24 06:35:20;;;;;;;7.90;6.00;;;22.00;61.20;;;;;;5052134;28;20175;-64
2023/06/24 06:37:51;;;;;;;6.28;5.70;;;22.10;60.60;;;;;;5052920;28;20198;-64
2023/06/24 06:40:17;;;;;;;5.22;4.72;;;22.10;59.60;;;;;;5052820;28;20194;-63
2023/06/24 06:42:43;;;;;;;4.70;4.22;;;22.10;58.90;;;;;;5052207;28;20175;-63
2023/06/24 06:45:09;;;;;;;5.07;4.32;;;22.10;58.70;;;;;;5053036;28;20175;-66
2023/06/24 06:47:34;;;;;;;5.22;4.50;;;22.10;58.50;;;;;;5052239;28;20638;-63
2023/06/24 06:50:00;;;;;;;5.93;4.55;;;22.10;58.30;;;;;;5052260;28;20702;-63
2023/06/24 06:52:27;;;;;;;4.43;4.03;;;22.20;58.30;;;;;;5052779;28;20667;-63
2023/06/24 06:54:53;;;;;;;5.45;3.75;;;22.10;57.90;;;;;;5052045;28;20171;-63
2023/06/24 06:57:18;;;;;;;6.00;4.40;;;22.20;57.90;;;;;;5052256;28;20167;-64
2023/06/24 06:59:44;;;;;;;5.68;4.50;;;22.20;57.80;;;;;;5052647;28;20179;-66
2023/06/24 07:02:10;;;;;;;5.32;4.10;;;22.20;57.60;;;;;;5051699;28;20189;-65
2023/06/24 07:04:35;;;;;;;5.68;4.30;;;22.30;57.50;;;;;;5052290;28;20202;-65
2023/06/24 07:07:01;;;;;;;5.93;4.30;;;22.30;57.50;;;;;;5052463;28;20229;-65
2023/06/24 07:09:26;;;;;;;5.55;3.90;;;22.30;57.40;;;;;;5051945;28;20298;-64
2023/06/24 07:11:52;;;;;;;4.97;4.47;;;22.30;57.10;;;;;;5052576;28;20199;-64
2023/06/24 07:14:17;;;;;;;5.00;3.95;;;22.30;57.70;;;;;;5055465;28;20203;-64
2023/06/24 07:16:43;;;;;;;4.50;3.70;;;22.30;57.10;;;;;;5055776;28;20572;-63
2023/06/24 07:19:08;;;;;;;4.22;3.55;;;22.40;56.70;;;;;;5056219;28;20700;-64
2023/06/24 07:21:34;;;;;;;6.20;4.13;;;22.40;56.50;;;;;;5056404;28;20638;-63
2023/06/24 07:23:59;;;;;;;4.25;3.83;;;22.40;56.50;;;;;;5055327;28;20171;-63
2023/06/24 07:26:28;;;;;;;4.38;3.85;;;22.40;56.60;;;;;;5056411;28;20268;-66
2023/06/24 07:28:55;;;;;;;4.00;3.58;;;22.40;56.60;;;;;;5056145;28;20213;-66
2023/06/24 07:31:21;;;;;;;5.63;4.07;;;22.40;57.30;;;;;;5055569;28;20183;-66
2023/06/24 07:33:46;;;;;;;4.72;3.70;;;22.30;57.60;;;;;;5056347;28;20206;-67
2023/06/24 07:36:13;;;;;;;4.18;3.80;;;22.30;57.80;;;;;;5055796;28;20179;-67
2023/06/24 07:38:39;;;;;;;3.58;3.17;;;22.40;57.70;;;;;;5055339;28;20227;-66
2023/06/24 07:41:04;;;;;;;4.28;3.47;;;22.30;57.70;;;;;;5055743;28;20180;-67
2023/06/24 07:43:30;;;;;;;4.57;4.00;;;22.30;57.90;;;;;;5055900;28;20175;-66
2023/06/24 07:45:55;;;;;;;5.32;3.50;;;22.30;58.00;;;;;;5055061;28;20715;-65
2023/06/24 07:48:21;;;;;;;4.25;3.15;;;22.30;58.00;;;;;;5055663;28;20203;-65
2023/06/24 07:50:46;;;;;;;4.70;3.53;;;22.30;58.10;;;;;;5055228;28;20534;-65
2023/06/24 07:53:12;;;;;;;3.92;3.53;;;22.20;58.10;;;;;;5055768;28;20203;-65
2023/06/24 07:55:38;;;;;;;4.53;3.50;;;22.20;58.20;;;;;;5055850;28;20210;-64
2023/06/24 07:58:04;;;;;;;3.95;3.20;;;22.30;58.30;;;;;;5054799;28;20190;-66
2023/06/24 08:00:30;;;;;;;5.75;4.05;;;22.30;58.30;;;;;;5055720;28;20171;-66
2023/06/24 08:02:57;;;;;;;4.53;3.83;;;22.30;58.40;;;;;;5055425;28;20175;-66
2023/06/24 08:05:23;;;;;;;3.10;2.90;;;22.40;58.50;;;;;;5055115;28;20175;-65
2023/06/24 08:07:50;;;;;;;4.40;3.35;;;22.30;59.10;;;;;;5055589;28;20167;-64
2023/06/24 08:10:15;;;;;;;5.20;3.72;;;22.40;58.60;;;;;;5055437;28;20766;-64
2023/06/24 08:12:41;;;;;;;4.32;3.70;;;22.40;58.70;;;;;;5054775;28;20694;-64
2023/06/24 08:15:07;;;;;;;4.47;3.20;;;22.40;58.60;;;;;;5055082;28;20183;-64
2023/06/24 08:17:32;;;;;;;3.78;3.03;;;22.40;58.70;;;;;;5055422;28;20293;-64
2023/06/24 08:19:58;;;;;;;3.80;3.35;;;22.40;58.60;;;;;;5054529;28;20309;-64
2023/06/24 08:22:23;;;;;;;4.40;3.03;;;22.40;58.50;;;;;;5055522;28;20304;-64
2023/06/24 08:24:49;;;;;;;5.93;3.58;;;22.40;58.50;;;;;;5054492;28;20217;-65
2023/06/24 08:27:14;;;;;;;4.50;3.08;;;22.50;58.70;;;;;;5054077;28;20178;-66
2023/06/24 08:29:40;;;;;;;3.60;2.97;;;22.50;58.70;;;;;;5055263;28;20213;-67
2023/06/24 08:32:06;;;;;;;4.63;3.25;;;22.50;58.70;;;;;;5054728;28;20167;-67
2023/06/24 08:34:32;;;;;;;5.20;3.33;;;22.50;58.80;;;;;;5054282;28;20755;-67
2023/06/24 08:36:58;;;;;;;4.18;3.53;;;22.50;58.90;;;;;;5054787;28;20183;-66
2023/06/24 08:39:24;;;;;;;4.15;3.13;;;22.50;58.90;;;;;;5054912;28;20234;-66
2023/06/24 08:41:49;;;;;;;3.42;2.95;;;22.50;59.50;;;;;;5054497;28;20254;-66
2023/06/24 08:44:15;;;;;;;3.75;3.05;;;22.50;58.80;;;;;;5054848;28;20174;-66
2023/06/24 08:46:40;;;;;;;3.75;2.80;;;22.50;58.80;;;;;;5054752;28;20178;-64
2023/06/24 08:49:21;;;;;;;3.30;3.00;;;22.50;58.90;;;;;;5054101;28;20246;-65
2023/06/24 08:51:49;;;;;;;4.45;2.97;;;22.50;58.70;;;;;;5053724;28;20177;-65
2023/06/24 08:54:15;;;;;;;5.72;3.22;;;22.50;58.80;;;;;;5052861;28;20254;-65
2023/06/24 08:56:40;;;;;;;3.20;2.97;;;22.50;58.90;;;;;;5055029;28;20690;-66
2023/06/24 08:59:06;;;;;;;3.70;3.13;;;22.50;58.90;;;;;;5036669;28;20179;-67
2023/06/24 09:01:32;;;;;;;3.72;2.97;;;22.50;59.00;;;;;;5053800;28;20668;-67
2023/06/24 09:03:57;;;;;;;3.70;2.88;;;22.50;58.80;;;;;;5054520;28;20182;-66
2023/06/24 09:06:23;;;;;;;3.10;2.80;;;22.50;59.00;;;;;;5054414;28;20626;-66
2023/06/24 09:08:55;;;;;;;3.80;2.90;;;22.50;58.80;;;;;;5053641;28;20211;-65
2023/06/24 09:11:26;;;;;;;5.38;3.00;;;22.50;58.60;;;;;;5054357;28;20650;-66
2023/06/24 09:13:58;;;;;;;3.38;2.70;;;22.50;58.50;;;;;;5054551;28;20191;-66
2023/06/24 09:16:24;;;;;;;3.15;2.88;;;22.50;58.40;;;;;;5053699;28;20208;-65
2023/06/24 09:18:50;;;;;;;3.22;2.92;;;22.50;59.00;;;;;;5054422;28;20208;-65
2023/06/24 09:21:25;;;;;;;4.10;2.60;;;22.50;58.40;;;;;;5054161;28;20664;-65
2023/06/24 09:23:53;;;;;;;3.38;2.83;;;22.50;58.20;;;;;;5053495;28;20179;-65
2023/06/24 09:26:19;;;;;;;3.33;2.47;;;22.60;58.40;;;;;;5053882;28;20179;-64
2023/06/24 09:28:49;;;;;;;3.40;3.10;;;22.60;58.50;;;;;;5054143;28;20218;-65
2023/06/24 09:31:14;;;;;;;3.05;2.80;;;22.60;58.40;;;;;;5053186;28;20167;-66
2023/06/24 09:33:40;;;;;;;4.40;2.70;;;22.60;58.50;;;;;;5057056;28;20548;-66
2023/06/24 09:36:05;;;;;;;3.72;3.00;;;22.70;58.40;;;;;;5058359;28;20649;-66
2023/06/24 09:38:36;;;;;;;3.38;3.08;;;22.70;58.50;;;;;;5070121;28;20228;-65
2023/06/24 09:41:05;;;;;;;5.20;2.65;;;22.70;58.30;;;;;;5070703;28;20241;-65
2023/06/24 09:43:39;;;;;;;2.90;2.60;;;22.70;58.30;;;;;;5053233;28;20175;-65
2023/06/24 09:46:05;;;;;;;4.50;3.20;;;22.70;58.30;;;;;;5052442;28;20209;-64
2023/06/24 09:48:30;;;;;;;2.80;2.60;;;22.70;58.30;;;;;;5053641;28;20252;-64
2023/06/24 09:51:05;;;;;;;3.28;2.97;;;22.70;58.30;;;;;;5066801;28;20178;-65
2023/06/24 09:53:31;;;;;;;2.80;2.60;;;22.70;58.20;;;;;;5056519;28;20175;-65
2023/06/24 09:55:57;;;;;;;2.72;2.50;;;22.70;58.30;;;;;;5053504;28;20187;-66
2023/06/24 09:58:22;;;;;;;2.60;2.40;;;22.70;58.30;;;;;;5051823;28;20175;-67
2023/06/24 10:00:48;;;;;;;2.75;2.53;;;22.70;58.30;;;;;;5053525;28;20521;-66
2023/06/24 10:03:14;;;;;;;3.53;3.20;;;22.80;58.40;;;;;;5053224;28;20550;-66
2023/06/24 10:05:40;;;;;;;3.00;2.70;;;22.80;58.20;;;;;;5052623;28;20630;-65
2023/06/24 10:08:05;;;;;;;5.47;2.78;;;22.80;58.30;;;;;;5066958;28;20280;-66
2023/06/24 10:10:31;;;;;;;4.97;2.97;;;22.80;58.10;;;;;;5072196;28;20277;-65
2023/06/24 10:12:57;;;;;;;2.88;2.67;;;22.80;58.10;;;;;;5072352;28;20194;-65
2023/06/24 10:15:23;;;;;;;4.07;2.50;;;22.80;58.10;;;;;;5072066;28;20179;-65
2023/06/24 10:17:50;;;;;;;2.85;2.65;;;22.80;58.20;;;;;;5073063;28;20253;-66
2023/06/24 10:20:25;;;;;;;2.63;2.08;;;22.80;58.20;;;;;;5070881;28;20525;-65
2023/06/24 10:22:51;;;;;;;2.47;2.28;;;22.80;58.10;;;;;;5073171;28;20223;-64
2023/06/24 10:25:17;;;;;;;4.18;2.33;;;22.80;58.00;;;;;;5072627;28;20189;-65
2023/06/24 10:27:43;;;;;;;3.17;2.50;;;22.90;58.20;;;;;;5071167;28;20224;-65
2023/06/24 10:30:16;;;;;;;5.10;3.08;;;22.80;57.70;;;;;;5072664;28;20680;-66
2023/06/24 10:32:44;;;;;;;3.80;2.85;;;22.90;57.70;;;;;;5072264;28;20179;-66
2023/06/24 10:35:29;;;;;;;3.22;2.60;;;22.90;57.80;;;;;;5072467;28;20569;-66
2023/06/24 10:37:56;;;;;;;3.30;2.83;;;22.90;57.90;;;;;;5072737;28;20624;-65
2023/06/24 10:40:42;;;;;;;3.83;2.65;;;22.90;58.00;;;;;;5071961;28;20182;-64
2023/06/24 10:43:22;;;;;;;3.78;2.88;;;22.90;58.00;;;;;;5032787;28;20186;-64
2023/06/24 10:45:52;;;;;;;3.90;2.80;;;22.90;58.00;;;;;;5032907;28;20266;-64
2023/06/24 10:48:20;;;;;;;4.70;3.05;;;22.90;58.10;;;;;;5031629;28;20230;-64
2023/06/24 10:50:47;;;;;;;3.45;3.15;;;22.90;58.10;;;;;;5032964;28;20206;-64
2023/06/24 10:53:12;;;;;;;4.68;2.80;;;23.00;58.10;;;;;;5032575;28;20186;-64
2023/06/24 10:55:38;;;;;;;2.97;2.75;;;22.90;58.00;;;;;;5032025;28;20172;-64
2023/06/24 10:58:08;;;;;;;3.10;2.72;;;22.90;58.00;;;;;;5031564;28;20221;-66
2023/06/24 11:00:33;;;;;;;3.38;2.72;;;22.90;58.00;;;;;;5032733;28;20242;-65
2023/06/24 11:03:08;;;;;;;3.55;2.83;;;23.00;58.10;;;;;;5032292;28;20631;-66
2023/06/24 11:05:34;;;;;;;3.28;2.92;;;23.00;58.10;;;;;;5033223;28;20182;-66
2023/06/24 11:07:59;;;;;;;2.85;2.65;;;23.00;58.10;;;;;;5031730;28;20172;-65
2023/06/24 11:10:25;;;;;;;2.95;2.72;;;23.00;58.10;;;;;;5032498;28;20184;-65
2023/06/24 11:12:51;;;;;;;3.22;2.92;;;23.00;58.00;;;;;;5032760;28;20164;-64
2023/06/24 11:15:17;;;;;;;3.50;2.63;;;23.00;58.10;;;;;;5031580;28;20233;-65
2023/06/24 11:17:43;;;;;;;3.35;2.92;;;23.00;58.00;;;;;;5032662;28;20176;-64
2023/06/24 11:20:12;;;;;;;3.20;2.80;;;23.00;58.00;;;;;;5032487;28;20176;-65
2023/06/24 11:22:39;;;;;;;3.38;3.08;;;23.00;58.00;;;;;;5031752;28;20187;-65
2023/06/24 11:25:05;;;;;;;3.63;3.03;;;23.10;58.00;;;;;;5032220;28;20784;-65
2023/06/24 11:27:31;;;;;;;3.30;2.97;;;23.00;58.00;;;;;;5032374;28;20179;-65
2023/06/24 11:30:02;;;;;;;4.55;2.90;;;23.10;58.10;;;;;;5031497;28;20208;-66
2023/06/24 11:32:40;;;;;;;3.67;3.00;;;23.10;58.10;;;;;;5032507;28;20592;-65
2023/06/24 11:35:08;;;;;;;3.22;2.92;;;23.10;58.10;;;;;;5032172;28;20189;-66
2023/06/24 11:37:33;;;;;;;3.13;2.83;;;23.10;58.00;;;;;;5031476;28;20544;-65
2023/06/24 11:40:05;;;;;;;3.10;2.80;;;23.10;58.00;;;;;;5032300;28;20180;-65
2023/06/24 11:42:32;;;;;;;3.70;2.78;;;23.10;58.00;;;;;;5067318;28;20185;-64
2023/06/24 11:45:04;;;;;;;3.60;2.75;;;23.10;58.00;;;;;;5071186;28;20174;-64
2023/06/24 11:47:32;;;;;;;3.63;2.90;;;23.20;58.00;;;;;;5072176;28;20272;-64
2023/06/24 11:49:58;;;;;;;4.13;2.90;;;23.20;57.90;;;;;;5071309;28;20218;-64
2023/06/24 11:52:40;;;;;;;3.55;3.03;;;23.20;57.90;;;;;;5072143;28;20564;-64
2023/06/24 11:55:17;;;;;;;3.17;2.88;;;23.20;57.80;;;;;;5072098;28;20185;-65
2023/06/24 11:57:52;;;;;;;3.22;2.85;;;23.20;57.80;;;;;;5071634;28;20171;-65
2023/06/24 12:00:24;;;;;;;3.25;2.80;;;23.20;57.70;;;;;;5073132;28;20185;-66
2023/06/24 12:02:54;;;;;;;4.13;3.10;;;23.30;57.60;;;;;;5075697;28;20178;-66
2023/06/24 12:05:25;;;;;;;3.28;2.97;;;23.20;57.60;;;;;;5074969;28;20684;-65
2023/06/24 12:07:53;;;;;;;3.50;3.00;;;23.30;57.50;;;;;;5075710;28;20178;-65
2023/06/24 12:10:19;;;;;;;3.30;3.00;;;23.30;57.50;;;;;;5075319;28;20179;-65
2023/06/24 12:12:44;;;;;;;3.53;3.22;;;23.30;57.40;;;;;;5074807;28;20175;-65
2023/06/24 12:15:10;;;;;;;4.43;2.80;;;23.40;57.40;;;;;;5075398;28;20174;-65
2023/06/24 12:17:35;;;;;;;3.42;3.13;;;23.30;57.30;;;;;;5075460;28;20201;-65
2023/06/24 12:20:01;;;;;;;3.92;2.97;;;23.40;57.30;;;;;;5074506;28;20247;-65
2023/06/24 12:22:27;;;;;;;3.90;3.00;;;23.40;57.30;;;;;;5075551;28;20167;-64
2023/06/24 12:24:52;;;;;;;3.50;3.20;;;23.40;57.80;;;;;;5075328;28;20261;-64
2023/06/24 12:27:18;;;;;;;3.67;3.38;;;23.50;57.20;;;;;;5074348;28;20222;-65
2023/06/24 12:29:43;;;;;;;3.85;2.92;;;23.50;57.20;;;;;;5075712;28;20308;-66
2023/06/24 12:32:09;;;;;;;2.88;2.67;;;23.50;57.10;;;;;;5074374;28;20257;-66
2023/06/24 12:34:34;;;;;;;3.70;3.38;;;23.50;57.00;;;;;;5075099;28;20257;-66
2023/06/24 12:37:00;;;;;;;3.55;3.08;;;23.60;57.00;;;;;;5074791;28;20182;-66
2023/06/24 12:39:25;;;;;;;3.28;2.97;;;23.60;56.90;;;;;;5074224;28;20238;-64
2023/06/24 12:41:51;;;;;;;5.47;3.53;;;23.60;56.80;;;;;;5062868;28;20171;-65
2023/06/24 12:44:17;;;;;;;3.42;3.10;;;23.60;56.80;;;;;;5054486;28;20219;-65
2023/06/24 12:46:42;;;;;;;4.13;3.05;;;23.70;56.80;;;;;;5054130;28;20179;-65